createdAt,value
2023-02-15T00:01:28.203Z,47.97
2023-02-15T00:04:47.111Z,41.27
2023-02-15T00:07:50.584Z,46.47
2023-02-15T00:10:55.043Z,44.50
2023-02-15T00:13:59.605Z,44.87
2023-02-15T00:17:02.750Z,46.73
2023-02-15T00:20:07.725Z,46.70
2023-02-15T00:23:11.496Z,53.30
2023-02-15T00:26:15.907Z,53.07
2023-02-15T00:29:22.068Z,55.57
2023-02-15T00:32:25.732Z,52.30
2023-02-15T00:35:28.869Z,48.30
2023-02-15T00:38:33.079Z,52.17
2023-02-15T00:41:38.008Z,52.00
2023-02-15T00:44:41.158Z,50.17
2023-02-15T00:47:44.286Z,50.97
2023-02-15T00:50:48.444Z,49.00
2023-02-15T00:53:52.225Z,55.43
2023-02-15T00:56:56.621Z,46.27
2023-02-15T00:59:59.914Z,51.10
2023-02-15T01:03:03.050Z,44.67
2023-02-15T01:06:06.572Z,51.43
2023-02-15T01:09:09.742Z,52.23
2023-02-15T01:12:15.057Z,43.87
2023-02-15T01:15:18.267Z,51.40
2023-02-15T01:18:21.824Z,50.40
2023-02-15T01:21:27.648Z,44.53
2023-02-15T01:24:30.618Z,53.23
2023-02-15T01:27:35.132Z,53.97
2023-02-15T01:30:38.676Z,48.93
2023-02-15T01:33:42.581Z,55.27
2023-02-15T01:36:46.300Z,51.60
2023-02-15T01:39:51.673Z,50.73
2023-02-15T01:42:59.900Z,53.27
2023-02-15T01:46:03.436Z,49.77
2023-02-15T01:49:14.350Z,47.60
2023-02-15T01:52:20.693Z,51.23
2023-02-15T01:55:26.228Z,54.27
2023-02-15T01:58:31.896Z,58.77
2023-02-15T02:01:36.117Z,52.93
2023-02-15T02:04:46.095Z,57.93
2023-02-15T02:07:53.335Z,58.53
2023-02-15T02:10:56.594Z,62.27
2023-02-15T02:14:01.250Z,58.53
2023-02-15T02:17:14.942Z,63.57
2023-02-15T02:20:53.396Z,64.00
2023-02-15T02:24:31.250Z,68.83
2023-02-15T02:27:41.024Z,65.73
2023-02-15T02:31:19.523Z,65.00
2023-02-15T02:34:31.581Z,66.07
2023-02-15T02:37:48.080Z,63.63
2023-02-15T02:41:03.245Z,64.87
2023-02-15T02:44:15.226Z,63.87
2023-02-15T02:47:25.410Z,62.83
2023-02-15T02:50:32.246Z,72.03
2023-02-15T02:53:36.210Z,70.83
2023-02-15T02:56:43.846Z,69.60
2023-02-15T02:59:49.673Z,86.67
2023-02-15T03:02:59.827Z,81.00
2023-02-15T03:06:08.965Z,79.23
2023-02-15T03:09:16.439Z,79.23
2023-02-15T03:12:23.669Z,78.63
2023-02-15T03:15:49.539Z,77.67
2023-02-15T03:18:59.119Z,82.37
2023-02-15T03:22:11.054Z,82.17
2023-02-15T03:25:19.007Z,81.23
2023-02-15T03:28:27.716Z,81.43
2023-02-15T03:31:39.834Z,87.17
2023-02-15T03:34:43.352Z,86.87
2023-02-15T03:37:53.037Z,84.43
2023-02-15T03:41:12.854Z,85.33
2023-02-15T03:44:23.707Z,77.80
2023-02-15T03:47:32.260Z,84.30
2023-02-15T03:51:04.216Z,86.80
2023-02-15T03:54:12.070Z,83.43
2023-02-15T03:57:40.302Z,83.00
2023-02-15T04:01:08.995Z,81.00
2023-02-15T04:04:18.469Z,75.87
2023-02-15T04:07:25.574Z,87.53
2023-02-15T04:10:47.607Z,89.90
2023-02-15T04:13:57.214Z,88.43
2023-02-15T04:16:59.360Z,87.83
2023-02-15T04:20:19.799Z,79.93
2023-02-15T04:23:41.608Z,76.63
2023-02-15T04:26:50.778Z,90.90
2023-02-15T04:29:56.265Z,86.20
2023-02-15T04:32:59.457Z,87.23
2023-02-15T04:36:02.903Z,90.13
2023-02-15T04:39:07.233Z,86.40
2023-02-15T04:42:11.672Z,81.70
2023-02-15T04:45:14.734Z,83.60
2023-02-15T04:48:18.122Z,88.37
2023-02-15T04:51:21.273Z,82.17
2023-02-15T04:54:24.516Z,81.30
2023-02-15T04:57:28.876Z,77.73
2023-02-15T05:00:35.518Z,80.13
2023-02-15T05:03:38.924Z,87.07
2023-02-15T05:06:42.306Z,77.50
2023-02-15T05:09:45.704Z,85.87
2023-02-15T05:12:50.191Z,85.50
2023-02-15T05:15:54.844Z,88.23
2023-02-15T05:18:58.155Z,87.00
2023-02-15T05:22:01.658Z,84.90
2023-02-15T05:25:22.729Z,87.40
2023-02-15T05:28:30.083Z,95.67
2023-02-15T05:31:34.339Z,89.60
2023-02-15T05:34:37.858Z,88.07
2023-02-15T05:37:40.889Z,83.33
2023-02-15T05:40:43.926Z,88.70
2023-02-15T05:43:52.365Z,94.87
2023-02-15T05:46:55.389Z,96.03
2023-02-15T05:49:58.462Z,103.10
2023-02-15T05:53:01.531Z,95.73
2023-02-15T05:56:06.291Z,91.30
2023-02-15T05:59:10.904Z,103.57
2023-02-15T06:02:14.168Z,104.27
2023-02-15T06:05:17.446Z,106.07
2023-02-15T06:08:21.565Z,105.73
2023-02-15T06:11:24.718Z,101.20
2023-02-15T06:14:29.317Z,116.33
2023-02-15T06:17:32.588Z,111.10
2023-02-15T06:20:35.668Z,112.33
2023-02-15T06:23:39.058Z,125.53
2023-02-15T06:26:42.222Z,136.00
2023-02-15T06:29:46.627Z,172.80
2023-02-15T06:32:50.213Z,115.70
2023-02-15T06:35:54.106Z,131.80
2023-02-15T06:38:58.094Z,211.77
2023-02-15T06:42:01.498Z,282.67
2023-02-15T06:45:08.609Z,171.53
2023-02-15T06:48:12.139Z,251.87
2023-02-15T06:51:15.722Z,145.67
2023-02-15T06:54:18.976Z,155.80
2023-02-15T06:57:22.061Z,155.27
2023-02-15T07:00:26.684Z,114.57
2023-02-15T07:03:29.772Z,170.97
2023-02-15T07:06:34.239Z,107.20
2023-02-15T07:09:37.496Z,156.77
2023-02-15T07:12:45.086Z,187.20
2023-02-15T07:15:50.580Z,251.87
2023-02-15T07:18:54.051Z,212.73
2023-02-15T07:21:57.158Z,108.07
2023-02-15T07:25:00.178Z,169.37
2023-02-15T07:28:06.052Z,184.27
2023-02-15T07:31:10.987Z,118.73
2023-02-15T07:34:14.394Z,167.53
2023-02-15T07:37:17.508Z,175.87
2023-02-15T07:40:23.366Z,166.93
2023-02-15T07:43:26.645Z,217.27
2023-02-15T07:46:31.442Z,167.83
2023-02-15T07:49:34.633Z,215.37
2023-02-15T07:52:37.759Z,181.10
2023-02-15T07:55:40.916Z,225.13
2023-02-15T07:58:53.539Z,123.53
2023-02-15T08:01:58.570Z,146.30
2023-02-15T08:05:03.861Z,147.10
2023-02-15T08:08:07.554Z,136.43
2023-02-15T08:11:33.870Z,178.03
2023-02-15T08:14:37.298Z,167.73
2023-02-15T08:17:42.320Z,131.13
2023-02-15T08:20:51.316Z,126.27
2023-02-15T08:23:54.727Z,136.87
2023-02-15T08:27:00.291Z,123.77
2023-02-15T08:30:03.522Z,124.97
2023-02-15T08:33:08.067Z,130.13
2023-02-15T08:36:14.011Z,107.87
2023-02-15T08:39:19.886Z,141.47
2023-02-15T08:42:22.993Z,167.17
2023-02-15T08:45:26.521Z,120.73
2023-02-15T08:48:30.999Z,129.47
2023-02-15T08:51:38.368Z,124.13
2023-02-15T08:54:41.457Z,127.33
2023-02-15T08:57:46.483Z,115.47
2023-02-15T09:00:49.599Z,110.90
2023-02-15T09:03:58.412Z,131.13
2023-02-15T09:07:01.598Z,111.70
2023-02-15T09:10:04.911Z,162.43
2023-02-15T09:13:07.991Z,133.77
2023-02-15T09:16:11.929Z,102.10
2023-02-15T09:19:18.299Z,124.83
2023-02-15T09:22:21.356Z,110.93
2023-02-15T09:25:24.578Z,106.10
2023-02-15T09:28:32.795Z,119.33
2023-02-15T09:31:42.262Z,105.27
2023-02-15T09:34:46.639Z,98.47
2023-02-15T09:37:49.817Z,111.63
2023-02-15T09:41:09.049Z,99.40
2023-02-15T09:44:22.822Z,98.67
2023-02-15T09:47:47.961Z,95.03
2023-02-15T09:51:14.843Z,91.53
2023-02-15T09:54:56.384Z,85.80
2023-02-15T09:58:10.012Z,93.17
2023-02-15T10:01:21.910Z,83.97
2023-02-15T10:04:46.177Z,83.77
2023-02-15T10:08:38.018Z,84.33
2023-02-15T10:12:00.341Z,87.63
2023-02-15T10:15:26.401Z,79.70
2023-02-15T10:18:53.293Z,74.93
2023-02-15T10:22:09.900Z,83.23
2023-02-15T10:25:31.674Z,84.60
2023-02-15T10:28:46.904Z,73.87
2023-02-15T10:31:54.160Z,80.93
2023-02-15T10:35:04.291Z,74.27
2023-02-15T10:38:21.366Z,77.30
2023-02-15T10:41:38.163Z,73.40
2023-02-15T10:44:57.680Z,70.23
2023-02-15T10:48:27.145Z,71.03
2023-02-15T10:51:40.612Z,78.03
2023-02-15T10:54:53.310Z,66.13
2023-02-15T10:58:10.691Z,69.40
2023-02-15T11:01:22.352Z,62.27
2023-02-15T11:04:46.741Z,60.60
2023-02-15T11:07:53.068Z,62.27
2023-02-15T11:11:01.998Z,55.77
2023-02-15T11:14:17.040Z,58.93
2023-02-15T11:17:29.067Z,63.03
2023-02-15T11:20:37.949Z,56.73
2023-02-15T11:23:46.485Z,51.87
2023-02-15T11:26:57.789Z,55.83
2023-02-15T11:30:10.377Z,51.63
2023-02-15T11:33:23.329Z,53.33
2023-02-15T11:36:30.956Z,53.80
2023-02-15T11:39:36.954Z,47.70
2023-02-15T11:42:43.839Z,48.80
2023-02-15T11:45:48.765Z,47.17
2023-02-15T11:48:52.113Z,48.27
2023-02-15T11:51:57.388Z,41.77
2023-02-15T11:55:00.890Z,46.40
2023-02-15T11:58:43.603Z,43.57
2023-02-15T12:01:53.859Z,41.73
2023-02-15T12:05:00.375Z,43.10
2023-02-15T12:08:11.511Z,42.97
2023-02-15T12:11:21.762Z,36.37
2023-02-15T12:14:28.241Z,35.90
2023-02-15T12:17:37.697Z,38.03
2023-02-15T12:20:48.987Z,38.80
2023-02-15T12:23:55.823Z,36.90
2023-02-15T12:27:06.384Z,38.03
2023-02-15T12:30:22.405Z,36.73
2023-02-15T12:33:32.566Z,32.87
2023-02-15T12:36:47.933Z,35.97
2023-02-15T12:39:58.466Z,36.57
2023-02-15T12:43:09.201Z,36.60
2023-02-15T12:46:25.320Z,36.70
2023-02-15T12:49:30.842Z,34.57
2023-02-15T12:52:33.933Z,34.03
2023-02-15T12:55:37.598Z,32.53
2023-02-15T12:58:42.299Z,33.90
2023-02-15T13:01:46.950Z,34.57
2023-02-15T13:04:52.816Z,34.40
2023-02-15T13:07:59.220Z,34.83
2023-02-15T13:11:06.615Z,31.87
2023-02-15T13:14:21.806Z,35.43
2023-02-15T13:17:30.498Z,36.77
2023-02-15T13:20:37.491Z,37.00
2023-02-15T13:23:44.324Z,35.03
2023-02-15T13:26:49.001Z,36.00
2023-02-15T13:29:59.158Z,36.10
2023-02-15T13:33:07.317Z,32.80
2023-02-15T13:36:21.291Z,32.87
2023-02-15T13:39:32.449Z,33.63
2023-02-15T13:42:42.240Z,30.57
2023-02-15T13:45:59.350Z,29.93
2023-02-15T13:49:19.749Z,29.50
2023-02-15T13:52:26.228Z,27.30
2023-02-15T13:55:39.137Z,31.30
2023-02-15T13:59:10.661Z,28.97
2023-02-15T14:02:51.715Z,26.53
2023-02-15T14:06:13.880Z,31.73
2023-02-15T14:09:34.753Z,32.47
2023-02-15T14:12:55.121Z,27.97
2023-02-15T14:16:05.405Z,27.83
2023-02-15T14:19:19.106Z,28.77
2023-02-15T14:22:32.886Z,33.30
2023-02-15T14:25:46.836Z,36.37
2023-02-15T14:29:00.990Z,33.73
2023-02-15T14:32:32.286Z,31.73
2023-02-15T14:35:38.113Z,28.97
2023-02-15T14:38:56.818Z,28.57
2023-02-15T14:42:09.445Z,28.07
2023-02-15T14:45:26.660Z,31.53
2023-02-15T14:48:38.270Z,26.90
2023-02-15T14:52:02.242Z,30.10
2023-02-15T14:55:11.110Z,29.77
2023-02-15T14:58:16.100Z,29.43
2023-02-15T15:01:28.765Z,28.63
2023-02-15T15:04:34.248Z,28.10
2023-02-15T15:07:46.986Z,26.13
2023-02-15T15:10:50.063Z,27.83
2023-02-15T15:13:59.490Z,27.73
2023-02-15T15:17:04.108Z,35.63
2023-02-15T15:20:15.022Z,27.83
2023-02-15T15:23:43.398Z,30.23
2023-02-15T15:26:51.738Z,28.57
2023-02-15T15:29:56.152Z,26.70
2023-02-15T15:33:15.186Z,28.63
2023-02-15T15:36:55.463Z,26.47
2023-02-15T15:40:54.941Z,25.40
2023-02-15T15:44:46.034Z,26.30
2023-02-15T15:48:16.764Z,26.63
2023-02-15T15:51:22.518Z,26.23
2023-02-15T15:54:28.365Z,27.03
2023-02-15T15:57:37.039Z,27.00
2023-02-15T16:00:45.498Z,29.97
2023-02-15T16:03:56.149Z,25.30
2023-02-15T16:07:05.911Z,29.07
2023-02-15T16:10:24.362Z,29.47
2023-02-15T16:13:28.050Z,30.30
2023-02-15T16:16:32.012Z,30.30
2023-02-15T16:19:41.125Z,30.13
2023-02-15T16:22:44.326Z,28.87
2023-02-15T16:25:57.435Z,29.93
2023-02-15T16:29:02.528Z,30.27
2023-02-15T16:32:18.227Z,28.87
2023-02-15T16:35:24.872Z,31.93
2023-02-15T16:39:08.786Z,33.13
2023-02-15T16:42:14.532Z,32.73
2023-02-15T16:45:21.917Z,26.63
2023-02-15T16:48:28.706Z,27.57
2023-02-15T16:51:36.282Z,33.13
2023-02-15T16:54:43.144Z,29.77
2023-02-15T16:57:46.434Z,34.97
2023-02-15T17:00:49.709Z,32.27
2023-02-15T17:04:13.321Z,34.70
2023-02-15T17:07:20.601Z,32.23
2023-02-15T17:10:34.644Z,40.87
2023-02-15T17:13:37.766Z,35.73
2023-02-15T17:16:45.561Z,37.33
2023-02-15T17:19:52.824Z,66.27
2023-02-15T17:22:57.868Z,57.43
2023-02-15T17:26:04.578Z,40.07
2023-02-15T17:29:18.675Z,43.97
2023-02-15T17:32:26.188Z,46.53
2023-02-15T17:35:31.170Z,45.07
2023-02-15T17:38:39.527Z,38.93
2023-02-15T17:41:43.791Z,42.77
2023-02-15T17:44:46.835Z,38.67
2023-02-15T17:47:51.960Z,41.07
2023-02-15T17:50:58.146Z,37.23
2023-02-15T17:54:20.597Z,41.40
2023-02-15T17:57:23.680Z,42.53
2023-02-15T18:00:44.342Z,42.03
2023-02-15T18:04:08.942Z,32.50
2023-02-15T18:07:32.620Z,40.30
2023-02-15T18:10:59.467Z,35.73
2023-02-15T18:14:02.631Z,38.63
2023-02-15T18:17:06.732Z,38.20
2023-02-15T18:20:20.517Z,32.37
2023-02-15T18:23:23.544Z,37.87
2023-02-15T18:26:29.297Z,38.57
2023-02-15T18:29:32.633Z,41.97
2023-02-15T18:32:41.391Z,47.47
2023-02-15T18:35:50.044Z,45.67
2023-02-15T18:38:54.304Z,41.53
2023-02-15T18:41:58.874Z,41.67
2023-02-15T18:45:17.362Z,39.63
2023-02-15T18:48:20.533Z,47.77
2023-02-15T18:51:25.061Z,50.70
2023-02-15T18:54:28.846Z,58.43
2023-02-15T18:57:33.998Z,51.13
2023-02-15T19:00:37.106Z,55.10
2023-02-15T19:03:40.153Z,48.37
2023-02-15T19:06:48.044Z,42.70
2023-02-15T19:09:54.641Z,52.03
2023-02-15T19:12:59.685Z,47.63
2023-02-15T19:16:04.946Z,44.40
2023-02-15T19:19:08.452Z,47.43
2023-02-15T19:22:15.728Z,55.13
2023-02-15T19:25:23.810Z,48.20
2023-02-15T19:28:33.692Z,44.17
2023-02-15T19:31:37.135Z,45.30
2023-02-15T19:34:40.641Z,47.20
2023-02-15T19:37:47.307Z,45.50
2023-02-15T19:40:51.253Z,47.27
2023-02-15T19:43:57.059Z,45.67
2023-02-15T19:47:00.971Z,50.43
2023-02-15T19:50:04.892Z,52.13
2023-02-15T19:53:19.603Z,47.53
2023-02-15T19:56:24.605Z,46.17
2023-02-15T19:59:31.437Z,54.40
2023-02-15T20:02:34.566Z,54.27
2023-02-15T20:05:38.706Z,49.80
2023-02-15T20:08:43.064Z,50.40
2023-02-15T20:11:46.627Z,45.77
2023-02-15T20:14:51.253Z,47.37
2023-02-15T20:17:55.608Z,51.73
2023-02-15T20:21:00.435Z,48.93
2023-02-15T20:24:05.393Z,50.20
2023-02-15T20:27:16.442Z,46.33
2023-02-15T20:30:24.486Z,49.13
2023-02-15T20:33:27.923Z,51.17
2023-02-15T20:36:30.996Z,48.67
2023-02-15T20:39:35.039Z,49.07
2023-02-15T20:42:38.179Z,45.87
2023-02-15T20:45:42.674Z,47.30
2023-02-15T20:48:45.839Z,46.60
2023-02-15T20:51:49.506Z,51.17
2023-02-15T20:54:52.717Z,51.77
2023-02-15T20:57:56.839Z,51.70
2023-02-15T21:01:01.515Z,51.20
2023-02-15T21:04:10.325Z,47.67
2023-02-15T21:07:16.937Z,54.87
2023-02-15T21:10:22.921Z,52.70
2023-02-15T21:13:29.101Z,54.50
2023-02-15T21:16:34.081Z,49.03
2023-02-15T21:19:40.799Z,53.77
2023-02-15T21:22:44.957Z,52.73
2023-02-15T21:25:48.395Z,54.33
2023-02-15T21:28:52.337Z,54.20
2023-02-15T21:31:58.321Z,53.93
2023-02-15T21:35:01.595Z,59.50
2023-02-15T21:38:05.836Z,51.00
2023-02-15T21:41:34.446Z,50.77
2023-02-15T21:44:56.835Z,55.83
2023-02-15T21:48:02.779Z,52.27
2023-02-15T21:51:20.223Z,55.23
2023-02-15T21:54:28.992Z,49.07
2023-02-15T21:57:32.403Z,53.53
2023-02-15T22:00:35.611Z,50.40
2023-02-15T22:03:40.488Z,50.37
2023-02-15T22:06:43.668Z,53.23
2023-02-15T22:09:46.837Z,49.33
2023-02-15T22:12:50.840Z,50.63
2023-02-15T22:15:54.183Z,55.27
2023-02-15T22:19:01.616Z,60.87
2023-02-15T22:22:04.788Z,60.83
2023-02-15T22:25:08.807Z,53.37
2023-02-15T22:28:17.055Z,63.73
2023-02-15T22:31:22.358Z,59.93
2023-02-15T22:34:31.992Z,58.30
2023-02-15T22:37:35.074Z,47.77
2023-02-15T22:40:38.304Z,54.97
2023-02-15T22:43:43.952Z,64.80
2023-02-15T22:46:47.099Z,51.47
2023-02-15T22:49:51.653Z,59.23
2023-02-15T22:52:55.177Z,53.90
2023-02-15T22:56:01.830Z,49.47
2023-02-15T22:59:08.908Z,56.43
2023-02-15T23:02:16.090Z,56.03
2023-02-15T23:05:24.035Z,54.53
2023-02-15T23:08:27.111Z,61.53
2023-02-15T23:11:30.418Z,52.17
2023-02-15T23:14:37.302Z,60.23
2023-02-15T23:17:40.459Z,59.57
2023-02-15T23:20:45.739Z,60.00
2023-02-15T23:23:51.601Z,60.20
2023-02-15T23:26:55.093Z,51.43
2023-02-15T23:29:58.227Z,60.37
2023-02-15T23:33:01.462Z,56.40
2023-02-15T23:36:07.108Z,49.87
2023-02-15T23:39:33.065Z,54.03
2023-02-15T23:42:36.753Z,56.77
2023-02-15T23:45:40.580Z,67.53
2023-02-15T23:48:44.092Z,55.60
2023-02-15T23:51:51.655Z,53.87
2023-02-15T23:54:54.967Z,56.50
2023-02-15T23:57:58.582Z,53.00
